Aeroporto :
LOGIN :

Iscrizione | Disclaimer

   EN    FR    IT 

 










Sommario :    VFR   VFR Marginale   IFR   IFR Intensivo   IFR Molto Intensivo
Visibilità : 
Base nubi : 
>= 8 km
>= 3000ft
5 / 8 km
1000 / 3000 ft
1500m / 5 km
500 / 1000 ft
800 / 1500m
200 / 500 ft
< 800m
< 200 ft
Simboli :   Temporali  Nebbia  Neve Forte  Precipitazioni Forti  Vento > 20 kt
SIGMETs :   Varie  Temporali  Ghiacco  Turbolenza  Onda orograficha  Ceneri Vulcaniche






- Altitudine del aeroporto : 1213 ft
- Codice IATA : SCQ


LEST - Santiago de Compostela

ULTIMO METAR :
  • 251230Z 34008KT 300V010 8000 -RA SCT009 BKN014 BKN028 11/10 Q1024 TEMPO 3000 -RA BR

METARs OBSOLETI :
  • 251200Z 33007KT 290V010 8000 SCT006 BKN012 BKN028 12/10 Q1024 TEMPO 3000 -RA BR
  • 251141Z 33008KT 310V010 6000 SCT004 BKN010 BKN028 11/10 Q1024 NOSIG
  • 251100Z 30005KT 270V340 2500 -DZ BR BKN002 OVC007 11/11 Q1023 NOSIG
  • 251030Z 27005KT 220V300 4000 -DZ BR BKN001 OVC005 11/11 Q1022 NOSIG
  • 251000Z VRB04KT 3000 1400N -DZ BR BKN002 BKN008 10/10 Q1023 NOSIG

TAF TAF LEST
Valido dal 25 a 12 ore il 26 a 12 ore UTC


251100Z 2512/2612 32009KT 9999 SCT010 BKN016 TX12/2514Z TN06/2606Z
PROB30
TEMPO 2512/2518 3000 SHRA SCT025TCU
PROB40
TEMPO 2521/2609 3000 -RADZ BKN005 BKN010
PROB30
TEMPO 2521/2609 0800 BCFG BKN002



MetMap, La meteo Aeronautica in un colpo d'occhio ! - Copyright ORBIFLY Dicembre 2007 - Disclaimer

ORBIFLY MET'MAP TEAM :

Programmazione e sviluppo : Alexandra Zaïnal
Concezione : Baudouin d'Aumeries
Aiuto per la programmazione : Marc-Olivier Méhu
Supporto tecnico e logistico : Manuel Goepfert
Aiuto per la traduzione : Arnaldo La Scala

Contatto : metmap@orbifly.com




FONTI E CREDITI :

   NOAA